Time;durP1;ratioP1;P1;durP2;ratioP2;P2;SDS_P1;SDS_P2;PMS_P1;PMS_P2;Temp;Humidity;BMP_temperature;BMP_pressure;BME280_temperature;BME280_humidity;BME280_pressure;Samples;Min_cycle;Max_cycle;Signal;HPM_P1;HPM_P2
2022/11/05 00:09:28;;;;;;;0.55;0.40;;;20.70;44.50;;;;;;6216670;28;20211;-34
2022/11/05 00:10:24;;;;;;;0.82;0.50;;;21.10;44.60;;;;;;6208945;28;20810;-35
2022/11/05 00:16:46;;;;;;;1.00;0.50;;;20.70;44.40;;;;;;6208679;28;20036;-34
2022/11/05 00:19:47;;;;;;;0.95;0.63;;;20.60;44.30;;;;;;6210706;28;20087;-34
2022/11/05 00:26:08;;;;;;;1.00;0.70;;;20.50;44.30;;;;;;6211505;28;20056;-34
2022/11/05 00:29:10;;;;;;;0.90;0.70;;;21.00;44.60;;;;;;6208338;28;20075;-35
2022/11/05 00:32:12;;;;;;;0.90;0.70;;;20.60;44.50;;;;;;6210697;28;20087;-35
2022/11/05 00:35:14;;;;;;;;;;;21.00;44.60;;;;;;6209774;28;20143;-35
2022/11/05 00:38:16;;;;;;;1.08;0.75;;;21.20;44.80;;;;;;6211294;28;19962;-35
2022/11/05 00:41:17;;;;;;;;;;;21.10;44.80;;;;;;6216821;28;20083;-34
2022/11/05 00:50:49;;;;;;;1.00;0.70;;;21.30;44.80;;;;;;6215959;28;20922;-35
2022/11/05 00:53:50;;;;;;;;;;;20.80;44.70;;;;;;6214518;28;20063;-35
2022/11/05 00:56:52;;;;;;;0.80;0.47;;;20.80;45.00;;;;;;6214143;28;20002;-34
2022/11/05 00:59:54;;;;;;;0.90;0.52;;;20.70;44.60;;;;;;6215673;28;20044;-34
2022/11/05 01:02:58;;;;;;;1.02;0.68;;;20.60;44.50;;;;;;6211573;28;20075;-34
2022/11/05 01:06:08;;;;;;;1.48;0.55;;;21.00;44.60;;;;;;6214586;28;20052;-35
2022/11/05 01:09:09;;;;;;;0.95;0.70;;;20.80;44.60;;;;;;6199059;28;20041;-34
2022/11/05 01:12:11;;;;;;;;;;;20.90;44.60;;;;;;6220006;28;20032;-34
2022/11/05 01:15:13;;;;;;;0.85;0.45;;;21.20;45.10;;;;;;6221686;28;20598;-35
2022/11/05 01:18:14;;;;;;;0.70;0.55;;;20.30;44.50;;;;;;6217814;28;20041;-34
2022/11/05 01:21:16;;;;;;;0.98;0.70;;;20.90;44.70;;;;;;6216699;28;20056;-34
2022/11/05 01:24:17;;;;;;;0.93;0.60;;;20.80;44.80;;;;;;6215538;28;20047;-35
2022/11/05 01:27:18;;;;;;;0.85;0.73;;;20.50;44.60;;;;;;6215647;28;20093;-34
2022/11/05 01:30:20;;;;;;;;;;;21.30;45.00;;;;;;6218496;28;20044;-34
2022/11/05 01:33:22;;;;;;;0.50;0.40;;;20.80;58.90;;;;;;6213789;28;20776;-35
2022/11/05 01:36:24;;;;;;;0.63;0.40;;;20.60;44.80;;;;;;6221182;28;20061;-34
2022/11/05 01:39:25;;;;;;;;;;;20.70;44.80;;;;;;6222581;28;20036;-35
2022/11/05 01:42:31;;;;;;;0.60;0.45;;;20.90;45.10;;;;;;6218511;28;19997;-35
2022/11/05 01:45:34;;;;;;;0.75;0.40;;;20.70;44.80;;;;;;6219675;28;21015;-35
2022/11/05 01:48:36;;;;;;;0.75;0.50;;;21.00;45.20;;;;;;6222033;28;20049;-34
2022/11/05 01:51:39;;;;;;;0.65;0.45;;;20.50;44.80;;;;;;6219432;28;21139;-34
2022/11/05 01:54:40;;;;;;;0.93;0.43;;;21.00;45.00;;;;;;6222596;28;20164;-34
2022/11/05 01:57:42;;;;;;;0.45;0.30;;;21.10;45.20;;;;;;6215636;28;20041;-34
2022/11/05 02:00:44;;;;;;;0.75;0.52;;;20.50;44.90;;;;;;6219679;28;20046;-34
2022/11/05 02:03:48;;;;;;;0.73;0.52;;;20.60;44.90;;;;;;6219125;28;20090;-34
2022/11/05 02:06:49;;;;;;;0.50;0.38;;;20.90;45.10;;;;;;6219452;28;20846;-35
2022/11/05 02:09:58;;;;;;;0.73;0.50;;;20.80;45.20;;;;;;6224253;28;20032;-34
2022/11/05 02:12:59;;;;;;;0.82;0.50;;;20.80;45.60;;;;;;6217922;28;20231;-34
2022/11/05 02:16:09;;;;;;;0.40;0.32;;;20.80;45.00;;;;;;6217698;28;20184;-34
2022/11/05 02:19:36;;;;;;;0.40;0.38;;;20.70;45.10;;;;;;6236892;22;20599;-34
2022/11/05 02:23:06;;;;;;;0.30;0.20;;;20.80;45.10;;;;;;6188949;28;21038;-34
2022/11/05 02:26:30;;;;;;;0.95;0.45;;;20.80;45.20;;;;;;6198289;28;20127;-35
2022/11/05 02:30:02;;;;;;;0.75;0.32;;;20.20;44.90;;;;;;6196501;28;20037;-34
2022/11/05 02:33:09;;;;;;;;;;;20.50;45.00;;;;;;6188477;28;20120;-34
2022/11/05 02:36:26;;;;;;;0.73;0.50;;;20.50;45.20;;;;;;6195388;28;20399;-34
2022/11/05 02:39:38;;;;;;;0.70;0.50;;;21.00;45.30;;;;;;6205469;28;20044;-34
2022/11/05 02:42:46;;;;;;;0.30;0.30;;;20.70;45.10;;;;;;6188004;23;20392;-34
2022/11/05 02:45:57;;;;;;;0.43;0.32;;;20.60;45.10;;;;;;6228457;28;20574;-34
2022/11/05 02:49:07;;;;;;;0.82;0.50;;;20.50;45.00;;;;;;6234459;28;20623;-34
2022/11/05 02:52:15;;;;;;;0.68;0.50;;;20.70;45.20;;;;;;6221301;28;20044;-35
2022/11/05 02:55:22;;;;;;;0.88;0.60;;;20.60;45.10;;;;;;6237613;28;20503;-34
2022/11/05 02:58:26;;;;;;;0.80;0.40;;;20.40;45.00;;;;;;6238251;28;20037;-34
2022/11/05 03:01:28;;;;;;;0.85;0.60;;;20.70;45.10;;;;;;6236139;28;20371;-34
2022/11/05 03:04:31;;;;;;;;;;;20.90;45.40;;;;;;6224329;28;20429;-35
2022/11/05 03:07:43;;;;;;;0.73;0.50;;;20.50;45.40;;;;;;6237462;28;20859;-34
2022/11/05 03:10:53;;;;;;;0.63;0.40;;;20.80;45.20;;;;;;6222381;28;20703;-34
2022/11/05 03:14:01;;;;;;;0.77;0.40;;;20.90;45.30;;;;;;6239603;28;20044;-34
2022/11/05 03:17:12;;;;;;;0.35;0.32;;;20.80;45.30;;;;;;6223776;28;20040;-34
2022/11/05 03:20:18;;;;;;;0.47;0.30;;;20.90;45.30;;;;;;6241856;28;20048;-33
2022/11/05 03:23:26;;;;;;;0.80;0.40;;;20.70;45.30;;;;;;6223377;28;20491;-34
2022/11/05 03:26:32;;;;;;;1.05;0.50;;;20.80;45.30;;;;;;6242858;28;20083;-34
2022/11/05 03:29:41;;;;;;;0.38;0.32;;;20.80;45.40;;;;;;6240447;28;20567;-34
2022/11/05 03:32:49;;;;;;;0.75;0.50;;;20.80;45.30;;;;;;6238663;28;20032;-34
2022/11/05 03:35:54;;;;;;;1.88;0.75;;;20.90;45.40;;;;;;6223720;28;20496;-34
2022/11/05 03:38:58;;;;;;;0.70;0.40;;;20.40;45.20;;;;;;6222894;28;20055;-34
2022/11/05 03:42:03;;;;;;;0.77;0.60;;;20.90;59.80;;;;;;6230279;28;20413;-34
2022/11/05 03:45:12;;;;;;;0.45;0.40;;;20.70;45.20;;;;;;6208404;28;20049;-34
2022/11/05 03:48:16;;;;;;;0.57;0.50;;;20.50;45.20;;;;;;6209696;28;20053;-34
2022/11/05 03:51:28;;;;;;;0.73;0.50;;;20.70;45.40;;;;;;6209332;28;20419;-34
2022/11/05 03:54:30;;;;;;;0.82;0.63;;;20.80;45.40;;;;;;6206769;28;20217;-34
2022/11/05 03:57:36;;;;;;;0.95;0.68;;;20.60;45.30;;;;;;6209735;28;20052;-34
2022/11/05 04:00:37;;;;;;;0.43;0.40;;;20.80;45.50;;;;;;6192972;28;20029;-33
2022/11/05 04:03:38;;;;;;;;;;;20.90;45.60;;;;;;6211245;28;20347;-34
2022/11/05 04:26:15;;;;;;;1.25;0.90;;;20.70;45.60;;;;;;6211273;28;20048;-35
2022/11/05 04:32:29;;;;;;;1.23;1.02;;;20.70;46.00;;;;;;6211515;28;20073;-34
2022/11/05 04:35:33;;;;;;;1.20;0.60;;;20.80;45.80;;;;;;6210200;28;20499;-34
2022/11/05 04:38:35;;;;;;;1.52;0.80;;;20.60;45.60;;;;;;6199502;28;20072;-34
2022/11/05 04:41:37;;;;;;;1.85;1.00;;;20.50;45.80;;;;;;6216055;28;20138;-35
2022/11/05 04:44:38;;;;;;;;;;;20.80;45.90;;;;;;6208543;28;20464;-34
2022/11/05 04:47:39;;;;;;;1.35;0.73;;;20.50;46.00;;;;;;6192288;28;19929;-34
2022/11/05 04:50:41;;;;;;;1.20;0.70;;;20.90;46.00;;;;;;6207611;28;20475;-35
2022/11/05 04:53:43;;;;;;;0.85;0.70;;;20.90;46.10;;;;;;6208995;28;20139;-34
2022/11/05 04:56:45;;;;;;;0.80;0.60;;;20.90;46.20;;;;;;6208754;28;20868;-35
2022/11/05 04:59:47;;;;;;;;;;;20.60;46.00;;;;;;6209001;28;20055;-34
2022/11/05 05:02:48;;;;;;;1.20;0.68;;;20.50;46.00;;;;;;6214024;28;19956;-35
2022/11/05 05:05:50;;;;;;;0.68;0.50;;;20.30;45.90;;;;;;6217773;28;20044;-35
2022/11/05 05:08:55;;;;;;;1.05;0.50;;;20.50;46.00;;;;;;6218732;28;20305;-34
2022/11/05 05:11:57;;;;;;;0.52;0.47;;;20.40;46.00;;;;;;6215592;28;20168;-35
2022/11/05 05:14:58;;;;;;;1.63;0.68;;;20.70;46.20;;;;;;6210404;28;20303;-34
2022/11/05 05:18:00;;;;;;;0.60;0.40;;;21.00;46.40;;;;;;6209658;28;20108;-35
2022/11/05 05:24:19;;;;;;;1.35;0.50;;;21.00;46.40;;;;;;6201775;28;19928;-34
2022/11/05 05:27:21;;;;;;;0.70;0.40;;;20.70;46.20;;;;;;6199182;28;20048;-34
2022/11/05 05:30:23;;;;;;;0.38;0.30;;;20.30;46.00;;;;;;6216394;28;20607;-35
2022/11/05 05:33:25;;;;;;;0.50;0.40;;;21.00;45.90;;;;;;6188572;28;20107;-35
2022/11/05 05:36:26;;;;;;;0.73;0.40;;;20.70;46.30;;;;;;6209460;28;20559;-34
2022/11/05 05:39:28;;;;;;;0.73;0.50;;;20.50;46.30;;;;;;6211737;28;20260;-34
2022/11/05 05:42:30;;;;;;;0.75;0.50;;;20.70;46.40;;;;;;6219523;28;20067;-35
2022/11/05 05:45:31;;;;;;;1.15;0.57;;;20.70;46.40;;;;;;6213031;28;20149;-35
2022/11/05 05:48:33;;;;;;;;;;;20.70;46.40;;;;;;6219071;28;20087;-34
2022/11/05 05:51:35;;;;;;;;;;;20.50;46.40;;;;;;6216661;28;19925;-35
2022/11/05 05:54:37;;;;;;;1.00;0.50;;;21.10;46.90;;;;;;6214782;28;19937;-35
2022/11/05 05:57:44;;;;;;;0.85;0.60;;;20.90;46.50;;;;;;6215536;28;20044;-34
2022/11/05 06:00:45;;;;;;;;;;;20.50;46.40;;;;;;6211028;28;20494;-34
2022/11/05 06:03:47;;;;;;;0.73;0.40;;;20.90;46.90;;;;;;6210227;28;19967;-34
2022/11/05 06:06:48;;;;;;;0.70;0.40;;;20.80;46.50;;;;;;6205232;28;20659;-34
2022/11/05 06:09:50;;;;;;;1.27;0.40;;;20.50;46.50;;;;;;6203446;28;20148;-34
2022/11/05 06:12:52;;;;;;;1.10;0.45;;;20.90;46.70;;;;;;6208311;28;20096;-35
2022/11/05 06:15:58;;;;;;;0.90;0.43;;;20.50;46.60;;;;;;6199267;28;20092;-34
2022/11/05 06:19:00;;;;;;;0.68;0.38;;;20.90;46.70;;;;;;6188636;28;20777;-34
2022/11/05 06:22:01;;;;;;;;;;;20.60;46.40;;;;;;6198723;28;20045;-34
2022/11/05 06:25:04;;;;;;;0.85;0.30;;;20.70;46.60;;;;;;6199306;28;20010;-34
2022/11/05 06:28:06;;;;;;;0.60;0.40;;;20.50;46.50;;;;;;6184004;28;20626;-34
2022/11/05 06:31:07;;;;;;;;;;;20.60;46.50;;;;;;6205883;28;20049;-34
2022/11/05 06:34:09;;;;;;;0.73;0.45;;;20.90;46.90;;;;;;6179603;28;19924;-34
2022/11/05 06:37:11;;;;;;;;;;;20.90;46.80;;;;;;6204821;28;20045;-34
2022/11/05 06:40:13;;;;;;;0.40;0.28;;;20.80;46.90;;;;;;6209937;28;20448;-34
2022/11/05 06:43:14;;;;;;;0.65;0.40;;;20.60;46.80;;;;;;6207727;28;20578;-35
2022/11/05 06:46:16;;;;;;;;;;;20.90;46.90;;;;;;6209915;28;21256;-34
2022/11/05 06:49:17;;;;;;;0.68;0.30;;;20.40;46.80;;;;;;6208208;28;20297;-34
2022/11/05 06:52:19;;;;;;;;;;;20.70;46.80;;;;;;6210738;28;20247;-34
2022/11/05 06:55:21;;;;;;;;;;;20.40;46.80;;;;;;6206661;28;20043;-34
2022/11/05 06:58:26;;;;;;;0.85;0.35;;;20.30;46.90;;;;;;6191294;28;19970;-34
2022/11/05 07:01:27;;;;;;;0.73;0.40;;;20.40;46.70;;;;;;6206613;28;20037;-34
2022/11/05 07:04:29;;;;;;;;;;;20.60;46.90;;;;;;6200274;28;20570;-34
2022/11/05 07:07:30;;;;;;;0.52;0.40;;;20.60;47.10;;;;;;6201746;28;19931;-34
2022/11/05 07:10:32;;;;;;;0.80;0.35;;;20.80;47.10;;;;;;6203213;28;20045;-34
2022/11/05 07:13:34;;;;;;;0.65;0.50;;;20.50;46.90;;;;;;6200440;28;20694;-34
2022/11/05 07:16:35;;;;;;;0.55;0.40;;;20.80;47.00;;;;;;6200336;28;20111;-35
2022/11/05 07:19:36;;;;;;;;;;;20.80;47.00;;;;;;6202019;28;20456;-34
2022/11/05 07:22:38;;;;;;;0.50;0.40;;;20.50;47.10;;;;;;6205659;28;20047;-34
2022/11/05 07:25:40;;;;;;;;;;;21.00;47.10;;;;;;6209525;28;20033;-34
2022/11/05 07:28:42;;;;;;;0.82;0.57;;;20.80;47.10;;;;;;6207365;28;20048;-35
2022/11/05 07:31:45;;;;;;;0.47;0.40;;;20.70;46.90;;;;;;6206775;28;20081;-34
2022/11/05 07:34:47;;;;;;;0.63;0.30;;;20.50;46.80;;;;;;6204615;28;20077;-35
2022/11/05 07:37:50;;;;;;;0.47;0.35;;;20.50;46.80;;;;;;6212071;28;20120;-35
2022/11/05 07:40:52;;;;;;;0.70;0.40;;;20.70;46.90;;;;;;6205951;28;21004;-34
2022/11/05 07:43:53;;;;;;;0.95;0.45;;;21.10;47.10;;;;;;6210461;28;20071;-35
2022/11/05 07:46:55;;;;;;;0.43;0.20;;;20.60;46.80;;;;;;6194865;28;20056;-34
2022/11/05 07:49:56;;;;;;;0.43;0.30;;;20.90;47.00;;;;;;6187861;28;20261;-34
2022/11/05 07:53:00;;;;;;;0.22;0.20;;;21.00;47.00;;;;;;6198968;28;20147;-35
2022/11/05 07:56:02;;;;;;;0.40;0.40;;;20.80;46.80;;;;;;6194762;28;20037;-34
2022/11/05 07:59:04;;;;;;;0.40;0.20;;;20.80;46.90;;;;;;6200265;28;20037;-34
2022/11/05 08:02:08;;;;;;;0.45;0.30;;;20.90;46.90;;;;;;6202088;28;20140;-34
2022/11/05 08:05:11;;;;;;;1.42;0.50;;;20.50;46.60;;;;;;6203882;28;20290;-34
2022/11/05 08:08:14;;;;;;;0.40;0.32;;;20.80;46.70;;;;;;6201877;28;20240;-34
2022/11/05 08:11:17;;;;;;;0.90;0.35;;;20.60;46.50;;;;;;6187435;28;20049;-34
2022/11/05 08:14:19;;;;;;;0.80;0.30;;;20.70;46.80;;;;;;6204183;28;20074;-34
2022/11/05 08:17:21;;;;;;;;;;;20.80;46.80;;;;;;6199451;28;20045;-34
2022/11/05 08:20:26;;;;;;;0.50;0.30;;;21.00;47.20;;;;;;6199212;28;20692;-34
2022/11/05 08:23:29;;;;;;;0.50;0.35;;;20.60;47.20;;;;;;6189186;28;20033;-34
2022/11/05 08:26:31;;;;;;;0.63;0.30;;;20.50;46.60;;;;;;6195313;28;20049;-34
2022/11/05 08:29:32;;;;;;;0.68;0.38;;;20.80;46.70;;;;;;6185400;28;20164;-34
2022/11/05 08:32:34;;;;;;;;;;;20.70;46.70;;;;;;6199254;28;20443;-34
2022/11/05 08:35:39;;;;;;;0.77;0.30;;;20.70;46.90;;;;;;6196928;28;19924;-34
2022/11/05 08:38:40;;;;;;;0.50;0.30;;;20.80;46.80;;;;;;6202723;28;20052;-35
2022/11/05 08:41:43;;;;;;;0.60;0.30;;;20.60;60.30;;;;;;6205191;28;20825;-34
2022/11/05 08:44:44;;;;;;;0.20;0.15;;;20.80;46.80;;;;;;6209658;28;20490;-34
2022/11/05 08:47:45;;;;;;;0.57;0.30;;;20.50;46.60;;;;;;6207225;28;20144;-35
2022/11/05 08:50:50;;;;;;;0.50;0.40;;;20.80;47.00;;;;;;6206649;28;20136;-34
2022/11/05 08:53:51;;;;;;;;;;;20.60;46.80;;;;;;6213009;28;20144;-35
2022/11/05 08:56:53;;;;;;;0.20;0.20;;;20.40;47.00;;;;;;6204680;28;19928;-35
2022/11/05 08:59:55;;;;;;;0.57;0.40;;;20.50;46.90;;;;;;6207041;28;20083;-34
2022/11/05 09:02:57;;;;;;;;;;;20.60;46.80;;;;;;6212094;28;20045;-34
2022/11/05 09:05:59;;;;;;;0.55;0.30;;;20.80;47.20;;;;;;6189474;28;19931;-35
2022/11/05 09:09:01;;;;;;;0.40;0.22;;;20.80;46.90;;;;;;6195821;28;20060;-35
2022/11/05 09:12:03;;;;;;;0.70;0.30;;;20.90;47.30;;;;;;6208217;28;20146;-35
2022/11/05 09:15:14;;;;;;;0.40;0.30;;;20.80;47.40;;;;;;6192092;28;20045;-35
2022/11/05 09:18:16;;;;;;;0.60;0.30;;;20.90;47.30;;;;;;6198113;28;20381;-35
2022/11/05 09:21:18;;;;;;;0.50;0.28;;;20.80;47.50;;;;;;6200942;28;20048;-35
2022/11/05 09:24:20;;;;;;;0.70;0.40;;;20.60;47.50;;;;;;6205179;28;20039;-35
2022/11/05 09:27:22;;;;;;;0.32;0.20;;;20.80;47.70;;;;;;6205908;28;20076;-35
2022/11/05 09:30:23;;;;;;;0.35;0.25;;;20.60;47.60;;;;;;6201754;28;20169;-36
2022/11/05 09:33:25;;;;;;;0.50;0.20;;;20.90;47.80;;;;;;6200460;28;20929;-35
2022/11/05 09:36:27;;;;;;;0.30;0.20;;;21.00;48.10;;;;;;6205419;28;20044;-34
2022/11/05 09:39:28;;;;;;;;;;;20.50;47.80;;;;;;6206742;28;20041;-35
2022/11/05 09:42:36;;;;;;;0.28;0.20;;;20.90;48.20;;;;;;6208647;28;19934;-35
2022/11/05 09:45:38;;;;;;;0.45;0.40;;;20.90;47.90;;;;;;6207498;28;21043;-35
2022/11/05 09:48:41;;;;;;;;;;;20.60;48.00;;;;;;6204342;28;20919;-35
2022/11/05 09:51:46;;;;;;;0.20;0.10;;;21.10;48.40;;;;;;6210908;28;19932;-35
2022/11/05 09:54:49;;;;;;;;;;;20.60;48.00;;;;;;6197830;28;20041;-35
2022/11/05 09:57:54;;;;;;;0.32;0.20;;;20.50;48.20;;;;;;6184115;28;19932;-35
2022/11/05 10:00:57;;;;;;;0.60;0.40;;;21.00;48.30;;;;;;6187858;28;20044;-35
2022/11/05 10:04:01;;;;;;;0.40;0.20;;;21.00;48.50;;;;;;6202985;28;20073;-34
2022/11/05 10:07:06;;;;;;;0.50;0.30;;;21.00;48.60;;;;;;6204899;28;20044;-35
2022/11/05 10:10:18;;;;;;;0.95;0.30;;;21.20;48.70;;;;;;6209925;28;20065;-35
2022/11/05 10:13:27;;;;;;;0.55;0.30;;;20.70;48.50;;;;;;6208284;28;20096;-35
2022/11/05 10:16:33;;;;;;;0.70;0.40;;;20.80;48.70;;;;;;6209468;28;20139;-35
2022/11/05 10:19:40;;;;;;;0.30;0.22;;;20.90;48.80;;;;;;6207160;28;20737;-35
2022/11/05 10:22:42;;;;;;;0.50;0.30;;;21.00;49.00;;;;;;6208621;28;20110;-35
2022/11/05 10:25:53;;;;;;;0.57;0.30;;;21.00;49.10;;;;;;6205153;28;20066;-35
2022/11/05 10:28:56;;;;;;;0.22;0.20;;;21.20;49.20;;;;;;6191335;28;20172;-34
2022/11/05 10:32:04;;;;;;;0.30;0.20;;;20.70;49.10;;;;;;6203532;28;20564;-35
2022/11/05 10:35:09;;;;;;;0.45;0.40;;;21.40;49.50;;;;;;6194192;28;20148;-35
2022/11/05 10:38:13;;;;;;;0.47;0.20;;;21.30;49.60;;;;;;6187261;28;20227;-35
2022/11/05 10:41:32;;;;;;;0.60;0.30;;;20.80;49.40;;;;;;6200443;28;20041;-34
2022/11/05 10:44:40;;;;;;;0.55;0.30;;;20.80;49.70;;;;;;6202167;28;20203;-35
2022/11/05 10:47:55;;;;;;;0.40;0.30;;;20.70;49.50;;;;;;6177415;28;20147;-35
2022/11/05 10:50:58;;;;;;;0.75;0.30;;;21.40;49.90;;;;;;6204790;28;20888;-34
2022/11/05 10:54:03;;;;;;;0.30;0.30;;;21.10;50.00;;;;;;6195717;28;20550;-35
2022/11/05 10:57:29;;;;;;;0.45;0.40;;;20.70;49.90;;;;;;6184170;28;20915;-35
2022/11/05 11:00:31;;;;;;;0.40;0.40;;;20.70;50.00;;;;;;6188704;28;21017;-35
2022/11/05 11:03:38;;;;;;;0.93;0.43;;;21.10;50.30;;;;;;6199756;28;20318;-35
2022/11/05 11:06:47;;;;;;;0.43;0.40;;;21.00;50.20;;;;;;6205824;28;20045;-35
2022/11/05 11:09:50;;;;;;;0.60;0.30;;;20.90;50.30;;;;;;6201773;28;20041;-35
2022/11/05 11:12:52;;;;;;;0.50;0.40;;;21.20;50.60;;;;;;6205877;28;20029;-35
2022/11/05 11:16:11;;;;;;;0.40;0.22;;;21.00;50.60;;;;;;6191737;28;20520;-35
2022/11/05 11:19:25;;;;;;;0.30;0.20;;;21.10;50.70;;;;;;6199126;28;20920;-34
2022/11/05 11:22:26;;;;;;;0.40;0.30;;;20.90;50.70;;;;;;6192338;28;20041;-35
2022/11/05 11:25:29;;;;;;;;;;;21.10;50.90;;;;;;6201176;28;20278;-34
2022/11/05 11:28:34;;;;;;;0.30;0.30;;;21.30;51.20;;;;;;6189750;28;19928;-35
2022/11/05 11:31:38;;;;;;;0.60;0.20;;;21.10;50.90;;;;;;6201142;28;20028;-35
2022/11/05 11:34:42;;;;;;;0.40;0.30;;;20.90;50.80;;;;;;6185805;28;20491;-35
2022/11/05 11:37:45;;;;;;;0.70;0.30;;;21.20;51.10;;;;;;6202116;28;20068;-35
2022/11/05 11:40:46;;;;;;;0.60;0.30;;;20.80;51.00;;;;;;6205915;28;20036;-35
2022/11/05 11:43:47;;;;;;;0.60;0.30;;;21.00;51.20;;;;;;6202852;28;20440;-35
2022/11/05 11:46:51;;;;;;;;;;;21.20;51.90;;;;;;6195126;28;20184;-35
2022/11/05 11:49:54;;;;;;;0.30;0.20;;;21.10;51.40;;;;;;6198461;28;20220;-35
2022/11/05 11:53:14;;;;;;;0.55;0.20;;;21.00;51.10;;;;;;6198288;28;20045;-35
2022/11/05 11:56:20;;;;;;;0.50;0.32;;;21.40;51.50;;;;;;6200006;28;20037;-35
2022/11/05 11:59:24;;;;;;;0.55;0.32;;;21.10;51.40;;;;;;6190052;28;20267;-35
2022/11/05 12:03:11;;;;;;;0.40;0.30;;;21.40;51.70;;;;;;6168707;28;20834;-34
2022/11/05 12:06:23;;;;;;;0.52;0.20;;;21.40;51.80;;;;;;6199065;28;20612;-35
2022/11/05 12:09:33;;;;;;;0.20;0.20;;;21.00;51.60;;;;;;6181083;28;20037;-35
2022/11/05 12:12:43;;;;;;;0.35;0.22;;;21.50;52.00;;;;;;6194749;28;20041;-34
2022/11/05 12:15:50;;;;;;;0.30;0.20;;;20.90;51.80;;;;;;6197788;28;20811;-35
2022/11/05 12:19:02;;;;;;;0.40;0.10;;;21.30;52.30;;;;;;6178436;28;20420;-35
2022/11/05 12:22:08;;;;;;;;;;;21.40;52.50;;;;;;6199342;28;20438;-35
2022/11/05 12:25:20;;;;;;;0.30;0.20;;;20.90;52.40;;;;;;6187420;28;20478;-35
2022/11/05 12:28:36;;;;;;;0.20;0.20;;;21.40;52.60;;;;;;6183993;28;20280;-35
2022/11/05 12:32:24;;;;;;;0.25;0.20;;;21.20;52.70;;;;;;6193662;28;20918;-35
2022/11/05 12:35:38;;;;;;;0.22;0.20;;;21.30;52.90;;;;;;6200809;28;20029;-35
2022/11/05 12:39:03;;;;;;;0.20;0.10;;;21.00;52.80;;;;;;6198909;28;20730;-35
2022/11/05 12:42:13;;;;;;;0.10;0.10;;;21.10;53.00;;;;;;6199150;28;20139;-35
2022/11/05 12:45:27;;;;;;;0.57;0.20;;;21.40;53.10;;;;;;6198687;28;20930;-35
2022/11/05 12:48:45;;;;;;;0.20;0.10;;;21.00;53.00;;;;;;6184943;28;20055;-35
2022/11/05 12:52:00;;;;;;;0.20;0.20;;;21.30;53.30;;;;;;6196416;28;20092;-35
2022/11/05 12:55:06;;;;;;;0.38;0.30;;;20.70;53.10;;;;;;6194909;28;20434;-35
2022/11/05 12:58:12;;;;;;;0.20;0.20;;;21.20;53.40;;;;;;6199378;28;20554;-35
2022/11/05 13:01:18;;;;;;;0.20;0.10;;;21.20;53.50;;;;;;6201947;28;20049;-35
2022/11/05 13:04:31;;;;;;;0.75;0.40;;;21.10;53.60;;;;;;6187803;28;20511;-34
2022/11/05 13:07:38;;;;;;;0.50;0.30;;;21.30;53.90;;;;;;6198370;28;20341;-35
2022/11/05 13:10:44;;;;;;;0.70;0.57;;;21.00;53.90;;;;;;6179843;28;20174;-35
2022/11/05 13:13:57;;;;;;;0.55;0.35;;;21.40;54.20;;;;;;6191448;28;20176;-35
2022/11/05 13:17:02;;;;;;;0.65;0.40;;;21.20;54.20;;;;;;6190372;28;20143;-35
2022/11/05 13:20:13;;;;;;;0.70;0.38;;;21.50;54.50;;;;;;6185163;28;20037;-35
2022/11/05 13:23:28;;;;;;;0.60;0.40;;;21.10;54.40;;;;;;6194983;28;21891;-35
2022/11/05 13:26:36;;;;;;;0.77;0.40;;;21.40;54.70;;;;;;6198102;28;20981;-35
2022/11/05 13:29:44;;;;;;;0.50;0.30;;;21.00;54.50;;;;;;6182802;28;20515;-35
2022/11/05 13:32:52;;;;;;;0.50;0.40;;;21.40;54.70;;;;;;6197690;28;20472;-35
2022/11/05 13:39:18;;;;;;;0.35;0.30;;;21.20;54.70;;;;;;6179217;28;20593;-35
2022/11/05 13:42:48;;;;;;;0.55;0.40;;;21.20;54.80;;;;;;6199461;28;20155;-35
2022/11/05 13:46:08;;;;;;;0.38;0.30;;;21.40;55.00;;;;;;6195471;28;20482;-35
2022/11/05 13:49:30;;;;;;;0.95;0.30;;;21.30;55.00;;;;;;6194451;28;20103;-35
2022/11/05 13:52:50;;;;;;;0.22;0.20;;;20.90;54.80;;;;;;6197822;28;20144;-34
2022/11/05 13:56:03;;;;;;;1.05;0.52;;;21.40;55.10;;;;;;6195174;28;20041;-35
2022/11/05 13:59:28;;;;;;;0.47;0.40;;;21.60;55.90;;;;;;6193624;28;20224;-36
2022/11/05 14:02:37;;;;;;;0.50;0.40;;;21.00;55.60;;;;;;6192683;28;20359;-34
2022/11/05 14:05:40;;;;;;;0.47;0.38;;;21.40;55.30;;;;;;6194560;28;20124;-35
2022/11/05 14:08:45;;;;;;;0.85;0.50;;;21.50;55.40;;;;;;6183832;28;20502;-35
2022/11/05 14:11:52;;;;;;;0.73;0.40;;;21.60;55.40;;;;;;6185243;28;21190;-35
2022/11/05 14:15:01;;;;;;;0.47;0.30;;;21.50;55.40;;;;;;6187983;28;20425;-35
2022/11/05 14:18:04;;;;;;;0.70;0.25;;;21.30;55.30;;;;;;6187298;28;20758;-35
2022/11/05 14:21:29;;;;;;;0.82;0.50;;;21.10;55.20;;;;;;6190810;28;20288;-35
2022/11/05 14:24:46;;;;;;;0.47;0.28;;;21.30;55.40;;;;;;6169969;28;20366;-35
2022/11/05 14:27:51;;;;;;;0.50;0.40;;;21.40;55.60;;;;;;6177094;28;20049;-35
2022/11/05 14:30:52;;;;;;;0.50;0.20;;;21.40;55.40;;;;;;6188613;28;20177;-35
2022/11/05 14:34:00;;;;;;;0.85;0.57;;;21.50;55.60;;;;;;6191664;28;20264;-35
2022/11/05 14:37:21;;;;;;;0.80;0.47;;;21.40;55.60;;;;;;6188169;28;20512;-35
2022/11/05 14:40:32;;;;;;;0.50;0.40;;;21.20;55.60;;;;;;6185935;28;20794;-35
2022/11/05 14:43:35;;;;;;;0.52;0.50;;;21.10;55.50;;;;;;6193559;28;20240;-35
2022/11/05 14:46:41;;;;;;;0.85;0.47;;;21.30;55.70;;;;;;6187553;28;20974;-35
2022/11/05 14:49:51;;;;;;;0.57;0.30;;;21.20;55.70;;;;;;6187913;28;20802;-34
2022/11/05 14:52:56;;;;;;;0.50;0.30;;;21.10;55.70;;;;;;6177854;28;20045;-35
2022/11/05 14:56:01;;;;;;;0.32;0.22;;;21.40;55.80;;;;;;6169764;28;20783;-35
2022/11/05 14:59:30;;;;;;;0.32;0.30;;;22.30;56.30;;;;;;6168523;28;20219;-35
2022/11/05 15:02:36;;;;;;;0.50;0.20;;;21.40;56.00;;;;;;6192284;28;21488;-35
2022/11/05 15:05:49;;;;;;;0.70;0.20;;;21.50;56.00;;;;;;6179273;28;20174;-34
2022/11/05 15:08:56;;;;;;;0.10;0.10;;;21.20;55.90;;;;;;6192158;28;20409;-35
2022/11/05 15:12:08;;;;;;;0.77;0.28;;;21.30;56.00;;;;;;6189977;28;20235;-35
2022/11/05 15:15:21;;;;;;;0.38;0.28;;;21.10;55.90;;;;;;6169002;28;20270;-34
2022/11/05 15:18:29;;;;;;;0.45;0.30;;;21.50;56.20;;;;;;6180241;28;20304;-35
2022/11/05 15:21:34;;;;;;;0.22;0.22;;;21.30;56.00;;;;;;6180473;28;20130;-35
2022/11/05 15:24:37;;;;;;;0.40;0.30;;;21.30;56.00;;;;;;6179853;28;20072;-35
2022/11/05 15:27:49;;;;;;;0.30;0.10;;;21.30;56.10;;;;;;6195754;28;20172;-35
2022/11/05 15:30:56;;;;;;;0.20;0.10;;;21.40;56.10;;;;;;6194849;28;20051;-35
2022/11/05 15:34:16;;;;;;;0.35;0.30;;;21.10;55.90;;;;;;6192681;28;20590;-35
2022/11/05 15:37:21;;;;;;;0.20;0.10;;;21.20;55.90;;;;;;6191578;28;20424;-35
2022/11/05 15:40:26;;;;;;;0.20;0.20;;;21.30;55.90;;;;;;6176357;28;20160;-35
2022/11/05 15:43:28;;;;;;;0.40;0.20;;;21.40;56.00;;;;;;6175953;28;20052;-35
2022/11/05 15:46:30;;;;;;;0.25;0.17;;;21.70;56.20;;;;;;6192080;28;20379;-34
2022/11/05 15:49:32;;;;;;;0.20;0.20;;;21.20;56.00;;;;;;6188441;28;20997;-34
2022/11/05 15:52:35;;;;;;;0.20;0.17;;;21.40;56.00;;;;;;6190588;28;20056;-35
2022/11/05 15:55:48;;;;;;;0.22;0.20;;;21.50;56.10;;;;;;6195334;28;20457;-35
2022/11/05 15:58:53;;;;;;;0.57;0.28;;;21.20;55.90;;;;;;6190366;28;20664;-35
2022/11/05 16:02:15;;;;;;;0.40;0.40;;;21.10;55.80;;;;;;6186392;28;20135;-35
2022/11/05 16:05:18;;;;;;;0.77;0.20;;;21.50;56.10;;;;;;6191037;28;20293;-35
2022/11/05 16:08:22;;;;;;;0.65;0.30;;;21.00;55.90;;;;;;6185105;28;20044;-35
2022/11/05 16:11:25;;;;;;;0.45;0.20;;;21.10;56.00;;;;;;6169097;28;20057;-35
2022/11/05 16:14:34;;;;;;;0.55;0.20;;;21.50;56.30;;;;;;6190810;28;21810;-35
2022/11/05 16:17:46;;;;;;;0.22;0.20;;;21.00;56.10;;;;;;6170909;28;20053;-34
2022/11/05 16:21:04;;;;;;;0.65;0.32;;;21.00;56.20;;;;;;6169815;28;20924;-35
2022/11/05 16:24:21;;;;;;;0.52;0.40;;;21.20;56.30;;;;;;6189005;28;20049;-35
2022/11/05 16:27:30;;;;;;;0.40;0.20;;;21.50;56.50;;;;;;6172049;28;20045;-35
2022/11/05 16:30:31;;;;;;;;;;;21.50;56.50;;;;;;6187991;28;20100;-35
2022/11/05 16:33:39;;;;;;;0.40;0.30;;;21.30;56.60;;;;;;6183760;28;20387;-34
2022/11/05 16:36:41;;;;;;;0.47;0.25;;;21.40;56.40;;;;;;6188262;28;20053;-35
2022/11/05 16:39:43;;;;;;;0.32;0.20;;;21.40;56.50;;;;;;6187605;28;20711;-35
2022/11/05 16:42:47;;;;;;;0.43;0.30;;;21.30;56.50;;;;;;6188469;28;20140;-35
2022/11/05 16:45:51;;;;;;;0.63;0.45;;;21.10;56.50;;;;;;6187828;28;20051;-35
2022/11/05 16:48:53;;;;;;;0.22;0.20;;;21.00;56.40;;;;;;6171038;28;20725;-35
2022/11/05 16:52:00;;;;;;;0.45;0.30;;;21.50;56.90;;;;;;6188915;28;20617;-34
2022/11/05 16:55:02;;;;;;;0.43;0.30;;;21.30;56.50;;;;;;6187517;28;20049;-34
2022/11/05 16:58:03;;;;;;;;;;;21.10;56.60;;;;;;6182382;28;20378;-34
2022/11/05 17:01:06;;;;;;;0.10;0.10;;;21.00;56.70;;;;;;6185337;28;20055;-34
2022/11/05 17:04:12;;;;;;;0.70;0.30;;;21.40;56.60;;;;;;6167965;28;20537;-35
2022/11/05 17:07:14;;;;;;;0.30;0.30;;;21.50;56.80;;;;;;6180551;28;20045;-34